sensor_id;sensor_type;location;lat;lon;timestamp;temperature;humidity
5554;DHT22;2800;49.528;8.666;2022-12-18T00:01:58;-7.50;99.90
5554;DHT22;2800;49.528;8.666;2022-12-18T00:04:27;-7.50;99.90
5554;DHT22;2800;49.528;8.666;2022-12-18T00:06:53;-7.50;99.90
5554;DHT22;2800;49.528;8.666;2022-12-18T00:09:18;-7.50;99.90
5554;DHT22;2800;49.528;8.666;2022-12-18T00:11:44;-7.60;99.90
5554;DHT22;2800;49.528;8.666;2022-12-18T00:14:11;-7.60;99.90
5554;DHT22;2800;49.528;8.666;2022-12-18T00:16:37;-7.50;99.90
5554;DHT22;2800;49.528;8.666;2022-12-18T00:19:03;-7.50;99.90
5554;DHT22;2800;49.528;8.666;2022-12-18T00:21:30;-7.60;99.90
5554;DHT22;2800;49.528;8.666;2022-12-18T00:23:57;-7.60;99.90
5554;DHT22;2800;49.528;8.666;2022-12-18T00:26:28;-7.60;99.90
5554;DHT22;2800;49.528;8.666;2022-12-18T00:28:54;-7.60;99.90
5554;DHT22;2800;49.528;8.666;2022-12-18T00:31:23;-7.60;99.90
5554;DHT22;2800;49.528;8.666;2022-12-18T00:33:49;-7.60;99.90
5554;DHT22;2800;49.528;8.666;2022-12-18T00:36:18;-7.70;99.90
5554;DHT22;2800;49.528;8.666;2022-12-18T00:38:45;-7.70;99.90
5554;DHT22;2800;49.528;8.666;2022-12-18T00:41:12;-7.70;99.90
5554;DHT22;2800;49.528;8.666;2022-12-18T00:43:38;-7.70;99.90
5554;DHT22;2800;49.528;8.666;2022-12-18T00:46:04;-7.70;99.90
5554;DHT22;2800;49.528;8.666;2022-12-18T00:48:30;-7.70;99.90
5554;DHT22;2800;49.528;8.666;2022-12-18T00:50:55;-7.60;99.90
5554;DHT22;2800;49.528;8.666;2022-12-18T00:53:21;-7.60;99.90
5554;DHT22;2800;49.528;8.666;2022-12-18T00:55:47;-7.50;99.90
5554;DHT22;2800;49.528;8.666;2022-12-18T00:58:14;-7.60;99.90
5554;DHT22;2800;49.528;8.666;2022-12-18T01:00:40;-7.70;99.90
5554;DHT22;2800;49.528;8.666;2022-12-18T01:03:06;-7.70;99.90
5554;DHT22;2800;49.528;8.666;2022-12-18T01:05:32;-7.70;99.90
5554;DHT22;2800;49.528;8.666;2022-12-18T01:07:58;-7.90;99.90
5554;DHT22;2800;49.528;8.666;2022-12-18T01:10:24;-8.00;99.90
5554;DHT22;2800;49.528;8.666;2022-12-18T01:12:50;-8.30;99.90
5554;DHT22;2800;49.528;8.666;2022-12-18T01:15:16;-8.30;99.90
5554;DHT22;2800;49.528;8.666;2022-12-18T01:17:42;-8.30;99.90
5554;DHT22;2800;49.528;8.666;2022-12-18T01:20:09;-8.20;99.90
5554;DHT22;2800;49.528;8.666;2022-12-18T01:22:35;-8.20;99.90
5554;DHT22;2800;49.528;8.666;2022-12-18T01:25:02;-8.20;99.90
5554;DHT22;2800;49.528;8.666;2022-12-18T01:27:27;-8.20;99.90
5554;DHT22;2800;49.528;8.666;2022-12-18T01:29:53;-8.20;99.90
5554;DHT22;2800;49.528;8.666;2022-12-18T01:32:19;-7.20;99.90
5554;DHT22;2800;49.528;8.666;2022-12-18T01:34:44;-8.20;99.90
5554;DHT22;2800;49.528;8.666;2022-12-18T01:37:10;-8.20;99.90
5554;DHT22;2800;49.528;8.666;2022-12-18T01:39:36;-8.20;99.90
5554;DHT22;2800;49.528;8.666;2022-12-18T01:42:10;-8.20;99.90
5554;DHT22;2800;49.528;8.666;2022-12-18T01:47:32;-8.20;99.90
5554;DHT22;2800;49.528;8.666;2022-12-18T01:50:07;-8.30;99.90
5554;DHT22;2800;49.528;8.666;2022-12-18T01:52:33;-8.40;99.90
5554;DHT22;2800;49.528;8.666;2022-12-18T01:55:01;-8.50;99.90
5554;DHT22;2800;49.528;8.666;2022-12-18T01:57:28;-8.50;99.90
5554;DHT22;2800;49.528;8.666;2022-12-18T01:59:59;-8.50;99.90
5554;DHT22;2800;49.528;8.666;2022-12-18T02:02:28;-8.60;99.90
5554;DHT22;2800;49.528;8.666;2022-12-18T02:04:54;-8.60;99.90
5554;DHT22;2800;49.528;8.666;2022-12-18T02:12:56;-8.60;99.90
5554;DHT22;2800;49.528;8.666;2022-12-18T02:15:39;-8.60;99.90
5554;DHT22;2800;49.528;8.666;2022-12-18T02:18:22;-8.60;99.90
5554;DHT22;2800;49.528;8.666;2022-12-18T02:20:55;-8.60;99.90
5554;DHT22;2800;49.528;8.666;2022-12-18T02:23:42;-8.50;99.90
5554;DHT22;2800;49.528;8.666;2022-12-18T02:26:34;-8.50;99.90
5554;DHT22;2800;49.528;8.666;2022-12-18T02:29:24;-8.50;99.90
5554;DHT22;2800;49.528;8.666;2022-12-18T02:31:55;-8.50;99.90
5554;DHT22;2800;49.528;8.666;2022-12-18T02:34:25;-8.60;99.90
5554;DHT22;2800;49.528;8.666;2022-12-18T02:36:53;-8.50;99.90
5554;DHT22;2800;49.528;8.666;2022-12-18T02:39:21;-8.60;99.90
5554;DHT22;2800;49.528;8.666;2022-12-18T02:41:48;-8.60;99.90
5554;DHT22;2800;49.528;8.666;2022-12-18T02:44:14;-8.80;99.90
5554;DHT22;2800;49.528;8.666;2022-12-18T02:46:42;-8.80;99.90
5554;DHT22;2800;49.528;8.666;2022-12-18T03:00:43;-9.00;99.90
5554;DHT22;2800;49.528;8.666;2022-12-18T03:03:14;-8.90;99.90
5554;DHT22;2800;49.528;8.666;2022-12-18T03:05:46;-9.00;99.90
5554;DHT22;2800;49.528;8.666;2022-12-18T03:08:20;-9.00;99.90
5554;DHT22;2800;49.528;8.666;2022-12-18T03:11:04;-9.20;99.90
5554;DHT22;2800;49.528;8.666;2022-12-18T03:13:49;-9.10;99.90
5554;DHT22;2800;49.528;8.666;2022-12-18T03:16:22;-9.10;99.90
5554;DHT22;2800;49.528;8.666;2022-12-18T03:19:14;-9.10;99.90
5554;DHT22;2800;49.528;8.666;2022-12-18T03:21:45;-9.10;99.90
5554;DHT22;2800;49.528;8.666;2022-12-18T03:24:13;-8.90;99.90
5554;DHT22;2800;49.528;8.666;2022-12-18T03:26:42;-8.80;99.90
5554;DHT22;2800;49.528;8.666;2022-12-18T03:29:19;-8.80;99.90
5554;DHT22;2800;49.528;8.666;2022-12-18T03:31:51;-8.90;99.90
5554;DHT22;2800;49.528;8.666;2022-12-18T03:34:30;-8.90;99.90
5554;DHT22;2800;49.528;8.666;2022-12-18T03:36:57;-9.00;99.90
5554;DHT22;2800;49.528;8.666;2022-12-18T03:39:23;-9.20;99.90
5554;DHT22;2800;49.528;8.666;2022-12-18T03:42:05;-9.30;99.90
5554;DHT22;2800;49.528;8.666;2022-12-18T03:44:44;-9.30;99.90
5554;DHT22;2800;49.528;8.666;2022-12-18T03:47:19;-9.30;99.90
5554;DHT22;2800;49.528;8.666;2022-12-18T03:49:57;-9.40;99.90
5554;DHT22;2800;49.528;8.666;2022-12-18T03:52:30;-9.20;99.90
5554;DHT22;2800;49.528;8.666;2022-12-18T03:54:59;-9.10;99.90
5554;DHT22;2800;49.528;8.666;2022-12-18T03:57:28;-9.10;99.90
5554;DHT22;2800;49.528;8.666;2022-12-18T03:59:56;-9.10;99.90
5554;DHT22;2800;49.528;8.666;2022-12-18T04:02:23;-9.30;99.90
5554;DHT22;2800;49.528;8.666;2022-12-18T04:04:52;-9.30;99.90
5554;DHT22;2800;49.528;8.666;2022-12-18T04:07:19;-9.20;99.90
5554;DHT22;2800;49.528;8.666;2022-12-18T04:09:46;-9.10;99.90
5554;DHT22;2800;49.528;8.666;2022-12-18T04:12:13;-8.70;99.90
5554;DHT22;2800;49.528;8.666;2022-12-18T04:14:39;-9.10;99.90
5554;DHT22;2800;49.528;8.666;2022-12-18T04:17:04;-9.00;99.90
5554;DHT22;2800;49.528;8.666;2022-12-18T04:19:30;-9.00;99.90
5554;DHT22;2800;49.528;8.666;2022-12-18T04:21:56;-9.00;99.90
5554;DHT22;2800;49.528;8.666;2022-12-18T04:24:21;-9.00;99.90
5554;DHT22;2800;49.528;8.666;2022-12-18T04:26:47;-8.90;99.90
5554;DHT22;2800;49.528;8.666;2022-12-18T04:29:12;-8.90;99.90
5554;DHT22;2800;49.528;8.666;2022-12-18T04:31:38;-8.90;99.90
5554;DHT22;2800;49.528;8.666;2022-12-18T04:34:03;-9.00;99.90
5554;DHT22;2800;49.528;8.666;2022-12-18T04:36:29;-8.90;99.90
5554;DHT22;2800;49.528;8.666;2022-12-18T04:38:55;-9.00;99.90
5554;DHT22;2800;49.528;8.666;2022-12-18T04:41:21;-8.80;99.90
5554;DHT22;2800;49.528;8.666;2022-12-18T04:43:46;-8.90;99.90
5554;DHT22;2800;49.528;8.666;2022-12-18T04:46:12;-8.90;99.90
5554;DHT22;2800;49.528;8.666;2022-12-18T04:48:38;-9.00;99.90
5554;DHT22;2800;49.528;8.666;2022-12-18T04:51:04;-9.00;99.90
5554;DHT22;2800;49.528;8.666;2022-12-18T04:53:30;-8.90;99.90
5554;DHT22;2800;49.528;8.666;2022-12-18T04:56:11;-8.80;99.90
5554;DHT22;2800;49.528;8.666;2022-12-18T04:58:38;-8.80;99.90
5554;DHT22;2800;49.528;8.666;2022-12-18T05:01:04;-8.80;99.90
5554;DHT22;2800;49.528;8.666;2022-12-18T05:03:31;-8.80;99.90
5554;DHT22;2800;49.528;8.666;2022-12-18T05:05:56;-8.80;99.90
5554;DHT22;2800;49.528;8.666;2022-12-18T05:08:22;-8.80;99.90
5554;DHT22;2800;49.528;8.666;2022-12-18T05:10:48;-8.80;99.90
5554;DHT22;2800;49.528;8.666;2022-12-18T05:13:13;-8.90;99.90
5554;DHT22;2800;49.528;8.666;2022-12-18T05:15:39;-8.90;99.90
5554;DHT22;2800;49.528;8.666;2022-12-18T05:18:05;-8.90;99.90
5554;DHT22;2800;49.528;8.666;2022-12-18T05:20:30;-8.90;99.90
5554;DHT22;2800;49.528;8.666;2022-12-18T05:22:56;-8.80;99.90
5554;DHT22;2800;49.528;8.666;2022-12-18T05:25:22;-8.80;99.90
5554;DHT22;2800;49.528;8.666;2022-12-18T05:27:48;-8.80;99.90
5554;DHT22;2800;49.528;8.666;2022-12-18T05:30:14;-8.90;99.90
5554;DHT22;2800;49.528;8.666;2022-12-18T05:32:40;-8.80;99.90
5554;DHT22;2800;49.528;8.666;2022-12-18T05:35:08;-8.90;99.90
5554;DHT22;2800;49.528;8.666;2022-12-18T05:37:34;-8.90;99.90
5554;DHT22;2800;49.528;8.666;2022-12-18T05:40:00;-8.80;99.90
5554;DHT22;2800;49.528;8.666;2022-12-18T05:42:26;-8.80;99.90
5554;DHT22;2800;49.528;8.666;2022-12-18T05:44:51;-8.70;99.90
5554;DHT22;2800;49.528;8.666;2022-12-18T05:47:17;-8.70;99.90
5554;DHT22;2800;49.528;8.666;2022-12-18T05:49:42;-8.70;99.90
5554;DHT22;2800;49.528;8.666;2022-12-18T05:52:08;-8.80;99.90
5554;DHT22;2800;49.528;8.666;2022-12-18T05:54:34;-8.90;99.90
5554;DHT22;2800;49.528;8.666;2022-12-18T05:57:00;-8.90;99.90
5554;DHT22;2800;49.528;8.666;2022-12-18T05:59:25;-9.10;99.90
5554;DHT22;2800;49.528;8.666;2022-12-18T06:01:51;-9.30;99.90
5554;DHT22;2800;49.528;8.666;2022-12-18T06:04:16;-9.30;99.90
5554;DHT22;2800;49.528;8.666;2022-12-18T06:06:42;-9.20;99.90
5554;DHT22;2800;49.528;8.666;2022-12-18T06:09:07;-9.20;99.90
5554;DHT22;2800;49.528;8.666;2022-12-18T06:11:36;-9.10;99.90
5554;DHT22;2800;49.528;8.666;2022-12-18T06:14:02;-9.00;99.90
5554;DHT22;2800;49.528;8.666;2022-12-18T06:16:29;-8.90;99.90
5554;DHT22;2800;49.528;8.666;2022-12-18T06:18:59;-8.90;99.90
5554;DHT22;2800;49.528;8.666;2022-12-18T06:21:25;-8.80;99.90
5554;DHT22;2800;49.528;8.666;2022-12-18T06:23:51;-8.80;99.90
5554;DHT22;2800;49.528;8.666;2022-12-18T06:26:16;-8.90;99.90
5554;DHT22;2800;49.528;8.666;2022-12-18T06:28:42;-8.80;99.90
5554;DHT22;2800;49.528;8.666;2022-12-18T06:31:08;-8.80;99.90
5554;DHT22;2800;49.528;8.666;2022-12-18T06:33:34;-8.80;99.90
5554;DHT22;2800;49.528;8.666;2022-12-18T06:36:02;-8.70;99.90
5554;DHT22;2800;49.528;8.666;2022-12-18T06:38:28;-8.70;99.90
5554;DHT22;2800;49.528;8.666;2022-12-18T06:40:53;-8.80;99.90
5554;DHT22;2800;49.528;8.666;2022-12-18T06:43:19;-8.80;99.90
5554;DHT22;2800;49.528;8.666;2022-12-18T06:45:44;-8.80;99.90
5554;DHT22;2800;49.528;8.666;2022-12-18T06:48:11;-8.60;99.90
5554;DHT22;2800;49.528;8.666;2022-12-18T06:50:37;-8.70;99.90
5554;DHT22;2800;49.528;8.666;2022-12-18T06:53:02;-8.80;99.90
5554;DHT22;2800;49.528;8.666;2022-12-18T06:55:27;-8.70;99.90
5554;DHT22;2800;49.528;8.666;2022-12-18T06:57:53;-8.80;99.90
5554;DHT22;2800;49.528;8.666;2022-12-18T07:00:19;-8.80;99.90
5554;DHT22;2800;49.528;8.666;2022-12-18T07:02:44;-8.60;99.90
5554;DHT22;2800;49.528;8.666;2022-12-18T07:05:09;-8.60;99.90
5554;DHT22;2800;49.528;8.666;2022-12-18T07:07:35;-8.60;99.90
5554;DHT22;2800;49.528;8.666;2022-12-18T07:10:00;-8.60;99.90
5554;DHT22;2800;49.528;8.666;2022-12-18T07:12:29;-8.60;99.90
5554;DHT22;2800;49.528;8.666;2022-12-18T07:14:54;-8.70;99.90
5554;DHT22;2800;49.528;8.666;2022-12-18T07:17:20;-8.80;99.90
5554;DHT22;2800;49.528;8.666;2022-12-18T07:19:45;-8.70;99.90
5554;DHT22;2800;49.528;8.666;2022-12-18T07:22:11;-8.60;99.90
5554;DHT22;2800;49.528;8.666;2022-12-18T07:24:36;-8.60;99.90
5554;DHT22;2800;49.528;8.666;2022-12-18T07:27:02;-8.50;99.90
5554;DHT22;2800;49.528;8.666;2022-12-18T07:29:27;-8.50;99.90
5554;DHT22;2800;49.528;8.666;2022-12-18T07:31:53;-8.60;99.90
5554;DHT22;2800;49.528;8.666;2022-12-18T07:34:19;-8.60;99.90
5554;DHT22;2800;49.528;8.666;2022-12-18T07:36:44;-8.60;99.90
5554;DHT22;2800;49.528;8.666;2022-12-18T07:39:13;-8.60;99.90
5554;DHT22;2800;49.528;8.666;2022-12-18T07:41:38;-8.60;99.90
5554;DHT22;2800;49.528;8.666;2022-12-18T07:44:09;-8.60;99.90
5554;DHT22;2800;49.528;8.666;2022-12-18T07:46:35;-8.60;99.90
5554;DHT22;2800;49.528;8.666;2022-12-18T07:49:01;-8.50;99.90
5554;DHT22;2800;49.528;8.666;2022-12-18T07:51:26;-8.50;99.90
5554;DHT22;2800;49.528;8.666;2022-12-18T07:53:52;-8.50;99.90
5554;DHT22;2800;49.528;8.666;2022-12-18T07:56:17;-8.60;99.90
5554;DHT22;2800;49.528;8.666;2022-12-18T07:58:43;-8.60;99.90
5554;DHT22;2800;49.528;8.666;2022-12-18T08:01:11;-8.60;99.90
5554;DHT22;2800;49.528;8.666;2022-12-18T08:03:37;-8.70;99.90
5554;DHT22;2800;49.528;8.666;2022-12-18T08:06:05;-8.70;99.90
5554;DHT22;2800;49.528;8.666;2022-12-18T08:08:33;-8.70;99.90
5554;DHT22;2800;49.528;8.666;2022-12-18T08:10:58;-8.70;99.90
5554;DHT22;2800;49.528;8.666;2022-12-18T08:13:25;-8.70;99.90
5554;DHT22;2800;49.528;8.666;2022-12-18T08:16:01;-8.70;99.90
5554;DHT22;2800;49.528;8.666;2022-12-18T08:18:28;-8.60;99.90
5554;DHT22;2800;49.528;8.666;2022-12-18T08:20:54;-8.40;99.90
5554;DHT22;2800;49.528;8.666;2022-12-18T08:23:20;-8.10;99.90
5554;DHT22;2800;49.528;8.666;2022-12-18T08:25:46;-7.80;99.90
5554;DHT22;2800;49.528;8.666;2022-12-18T08:28:11;-7.50;99.90
5554;DHT22;2800;49.528;8.666;2022-12-18T08:30:37;-7.50;99.90
5554;DHT22;2800;49.528;8.666;2022-12-18T08:33:02;-7.60;99.90
5554;DHT22;2800;49.528;8.666;2022-12-18T08:35:28;-7.70;99.90
5554;DHT22;2800;49.528;8.666;2022-12-18T08:37:53;-7.80;99.90
5554;DHT22;2800;49.528;8.666;2022-12-18T08:40:19;-7.70;99.90
5554;DHT22;2800;49.528;8.666;2022-12-18T08:42:44;-7.80;99.90
5554;DHT22;2800;49.528;8.666;2022-12-18T08:45:28;-6.70;99.90
5554;DHT22;2800;49.528;8.666;2022-12-18T08:47:54;-7.30;99.90
5554;DHT22;2800;49.528;8.666;2022-12-18T08:50:20;-6.90;99.90
5554;DHT22;2800;49.528;8.666;2022-12-18T08:52:45;-6.50;99.90
5554;DHT22;2800;49.528;8.666;2022-12-18T08:55:11;-6.20;99.90
5554;DHT22;2800;49.528;8.666;2022-12-18T08:57:36;-6.20;99.90
5554;DHT22;2800;49.528;8.666;2022-12-18T09:00:03;-5.80;99.90
5554;DHT22;2800;49.528;8.666;2022-12-18T09:02:29;-5.80;99.90
5554;DHT22;2800;49.528;8.666;2022-12-18T09:04:54;-5.70;99.90
5554;DHT22;2800;49.528;8.666;2022-12-18T09:07:20;-5.50;99.90
5554;DHT22;2800;49.528;8.666;2022-12-18T09:09:45;-5.50;99.90
5554;DHT22;2800;49.528;8.666;2022-12-18T09:12:11;-5.30;99.90
5554;DHT22;2800;49.528;8.666;2022-12-18T09:14:36;-5.40;99.90
5554;DHT22;2800;49.528;8.666;2022-12-18T09:17:02;-4.90;99.90
5554;DHT22;2800;49.528;8.666;2022-12-18T09:19:27;-4.50;99.90
5554;DHT22;2800;49.528;8.666;2022-12-18T09:21:53;-4.40;99.90
5554;DHT22;2800;49.528;8.666;2022-12-18T09:24:18;-4.50;99.90
5554;DHT22;2800;49.528;8.666;2022-12-18T09:26:44;-4.20;99.90
5554;DHT22;2800;49.528;8.666;2022-12-18T09:29:09;-4.20;99.90
5554;DHT22;2800;49.528;8.666;2022-12-18T09:31:35;-4.30;99.90
5554;DHT22;2800;49.528;8.666;2022-12-18T09:34:01;-4.40;99.90
5554;DHT22;2800;49.528;8.666;2022-12-18T09:36:26;-4.50;99.90
5554;DHT22;2800;49.528;8.666;2022-12-18T09:38:52;-4.70;99.90
5554;DHT22;2800;49.528;8.666;2022-12-18T09:43:52;-4.30;99.90
5554;DHT22;2800;49.528;8.666;2022-12-18T09:46:26;-4.30;99.90
5554;DHT22;2800;49.528;8.666;2022-12-18T09:48:56;-4.10;99.90
5554;DHT22;2800;49.528;8.666;2022-12-18T09:51:39;-3.80;99.90
5554;DHT22;2800;49.528;8.666;2022-12-18T09:54:19;-4.00;99.90
5554;DHT22;2800;49.528;8.666;2022-12-18T09:56:46;-4.10;99.90
5554;DHT22;2800;49.528;8.666;2022-12-18T09:59:26;-4.20;99.90
5554;DHT22;2800;49.528;8.666;2022-12-18T10:01:55;-3.70;99.90
5554;DHT22;2800;49.528;8.666;2022-12-18T10:04:20;-3.80;99.90
5554;DHT22;2800;49.528;8.666;2022-12-18T10:06:54;-3.70;99.90
5554;DHT22;2800;49.528;8.666;2022-12-18T10:09:32;-3.70;99.90
5554;DHT22;2800;49.528;8.666;2022-12-18T10:14:51;-3.50;99.90
5554;DHT22;2800;49.528;8.666;2022-12-18T10:20:05;-3.40;99.90
5554;DHT22;2800;49.528;8.666;2022-12-18T10:22:43;-3.20;99.90
5554;DHT22;2800;49.528;8.666;2022-12-18T10:25:48;-2.90;99.90
5554;DHT22;2800;49.528;8.666;2022-12-18T10:28:17;-2.60;99.90
5554;DHT22;2800;49.528;8.666;2022-12-18T10:30:44;-2.60;99.90
5554;DHT22;2800;49.528;8.666;2022-12-18T10:33:18;-2.20;99.90
5554;DHT22;2800;49.528;8.666;2022-12-18T10:35:45;-2.20;99.90
5554;DHT22;2800;49.528;8.666;2022-12-18T10:43:27;-2.10;99.90
5554;DHT22;2800;49.528;8.666;2022-12-18T10:48:28;-2.70;99.90
5554;DHT22;2800;49.528;8.666;2022-12-18T10:50:55;-2.70;99.90
5554;DHT22;2800;49.528;8.666;2022-12-18T10:53:27;-2.60;99.90
5554;DHT22;2800;49.528;8.666;2022-12-18T10:55:55;-2.10;99.90
5554;DHT22;2800;49.528;8.666;2022-12-18T10:58:33;-2.00;99.90
5554;DHT22;2800;49.528;8.666;2022-12-18T11:01:12;-1.90;99.90
5554;DHT22;2800;49.528;8.666;2022-12-18T11:06:22;-1.60;99.90
5554;DHT22;2800;49.528;8.666;2022-12-18T11:09:18;-1.50;99.90
5554;DHT22;2800;49.528;8.666;2022-12-18T11:11:53;-1.30;99.90
5554;DHT22;2800;49.528;8.666;2022-12-18T11:14:23;-1.40;99.90
5554;DHT22;2800;49.528;8.666;2022-12-18T11:16:51;-1.20;99.90
5554;DHT22;2800;49.528;8.666;2022-12-18T11:19:33;-1.30;99.90
5554;DHT22;2800;49.528;8.666;2022-12-18T11:22:01;-1.30;99.90
5554;DHT22;2800;49.528;8.666;2022-12-18T11:24:35;-1.30;99.90
5554;DHT22;2800;49.528;8.666;2022-12-18T11:27:03;-1.20;99.90
5554;DHT22;2800;49.528;8.666;2022-12-18T11:29:36;-1.20;99.90
5554;DHT22;2800;49.528;8.666;2022-12-18T11:32:38;-1.30;99.90
5554;DHT22;2800;49.528;8.666;2022-12-18T11:35:15;-1.30;99.90
5554;DHT22;2800;49.528;8.666;2022-12-18T11:37:50;-1.30;99.90
5554;DHT22;2800;49.528;8.666;2022-12-18T11:40:22;-1.30;99.90
5554;DHT22;2800;49.528;8.666;2022-12-18T11:43:02;-0.80;99.90
5554;DHT22;2800;49.528;8.666;2022-12-18T11:45:40;-0.90;99.90
5554;DHT22;2800;49.528;8.666;2022-12-18T11:48:29;-0.90;99.90
5554;DHT22;2800;49.528;8.666;2022-12-18T11:50:57;-0.60;99.90
5554;DHT22;2800;49.528;8.666;2022-12-18T11:53:25;-0.40;99.90
5554;DHT22;2800;49.528;8.666;2022-12-18T11:56:32;-0.50;99.90
5554;DHT22;2800;49.528;8.666;2022-12-18T11:59:37;-0.40;99.90
5554;DHT22;2800;49.528;8.666;2022-12-18T12:05:20;-0.40;99.90
5554;DHT22;2800;49.528;8.666;2022-12-18T12:08:21;-0.70;99.90
5554;DHT22;2800;49.528;8.666;2022-12-18T12:11:15;-0.90;99.90
5554;DHT22;2800;49.528;8.666;2022-12-18T12:17:01;-1.30;99.90
5554;DHT22;2800;49.528;8.666;2022-12-18T12:25:40;-1.20;99.90
5554;DHT22;2800;49.528;8.666;2022-12-18T12:30:48;-1.10;99.90
5554;DHT22;2800;49.528;8.666;2022-12-18T12:38:50;-1.50;99.90
5554;DHT22;2800;49.528;8.666;2022-12-18T12:41:23;-1.60;99.90
5554;DHT22;2800;49.528;8.666;2022-12-18T12:44:14;-1.60;99.90
5554;DHT22;2800;49.528;8.666;2022-12-18T12:46:42;-1.70;99.90
5554;DHT22;2800;49.528;8.666;2022-12-18T12:49:18;-2.00;99.90
5554;DHT22;2800;49.528;8.666;2022-12-18T12:51:58;-1.90;99.90
5554;DHT22;2800;49.528;8.666;2022-12-18T12:54:25;-2.00;99.90
5554;DHT22;2800;49.528;8.666;2022-12-18T12:57:03;-1.90;99.90
5554;DHT22;2800;49.528;8.666;2022-12-18T13:02:52;-2.30;99.90
5554;DHT22;2800;49.528;8.666;2022-12-18T13:05:43;-2.10;99.90
5554;DHT22;2800;49.528;8.666;2022-12-18T13:08:23;-1.90;99.90
5554;DHT22;2800;49.528;8.666;2022-12-18T13:10:48;-2.00;99.90
5554;DHT22;2800;49.528;8.666;2022-12-18T13:13:15;-2.00;99.90
5554;DHT22;2800;49.528;8.666;2022-12-18T13:18:11;-2.20;99.90
5554;DHT22;2800;49.528;8.666;2022-12-18T13:21:22;-2.40;99.90
5554;DHT22;2800;49.528;8.666;2022-12-18T13:23:34;-2.40;99.90
5554;DHT22;2800;49.528;8.666;2022-12-18T13:30:59;-2.40;99.90
5554;DHT22;2800;49.528;8.666;2022-12-18T13:36:00;-2.50;99.90
5554;DHT22;2800;49.528;8.666;2022-12-18T13:41:03;-2.20;99.90
5554;DHT22;2800;49.528;8.666;2022-12-18T13:43:42;-2.20;99.90
5554;DHT22;2800;49.528;8.666;2022-12-18T13:49:18;-2.40;99.90
5554;DHT22;2800;49.528;8.666;2022-12-18T13:51:54;-2.60;99.90
5554;DHT22;2800;49.528;8.666;2022-12-18T13:54:33;-2.60;99.90
5554;DHT22;2800;49.528;8.666;2022-12-18T13:57:00;-2.60;99.90
5554;DHT22;2800;49.528;8.666;2022-12-18T13:59:34;-2.50;99.90
5554;DHT22;2800;49.528;8.666;2022-12-18T14:02:07;-2.50;99.90
5554;DHT22;2800;49.528;8.666;2022-12-18T14:04:35;-2.50;99.90
5554;DHT22;2800;49.528;8.666;2022-12-18T14:07:12;-2.70;99.90
5554;DHT22;2800;49.528;8.666;2022-12-18T14:09:56;-2.70;99.90
5554;DHT22;2800;49.528;8.666;2022-12-18T14:12:27;-2.90;99.90
5554;DHT22;2800;49.528;8.666;2022-12-18T14:17:52;-2.90;99.90
5554;DHT22;2800;49.528;8.666;2022-12-18T14:20:19;-3.00;99.90
5554;DHT22;2800;49.528;8.666;2022-12-18T14:22:47;-3.10;99.90
5554;DHT22;2800;49.528;8.666;2022-12-18T14:25:21;-3.30;99.90
5554;DHT22;2800;49.528;8.666;2022-12-18T14:27:57;-3.30;99.90
5554;DHT22;2800;49.528;8.666;2022-12-18T14:30:30;-3.30;99.90
5554;DHT22;2800;49.528;8.666;2022-12-18T14:33:03;-3.40;99.90
5554;DHT22;2800;49.528;8.666;2022-12-18T14:35:29;-3.30;99.90
5554;DHT22;2800;49.528;8.666;2022-12-18T14:40:34;-3.40;99.90
5554;DHT22;2800;49.528;8.666;2022-12-18T14:43:00;-3.50;99.90
5554;DHT22;2800;49.528;8.666;2022-12-18T14:45:42;-3.50;99.90
5554;DHT22;2800;49.528;8.666;2022-12-18T14:50:38;-3.60;99.90
5554;DHT22;2800;49.528;8.666;2022-12-18T14:53:03;-3.60;99.90
5554;DHT22;2800;49.528;8.666;2022-12-18T14:55:32;-3.70;99.90
5554;DHT22;2800;49.528;8.666;2022-12-18T14:57:57;-3.70;99.90
5554;DHT22;2800;49.528;8.666;2022-12-18T15:00:24;-3.70;99.90
5554;DHT22;2800;49.528;8.666;2022-12-18T15:02:54;-3.60;99.90
5554;DHT22;2800;49.528;8.666;2022-12-18T15:05:30;-3.70;99.90
5554;DHT22;2800;49.528;8.666;2022-12-18T15:07:59;-3.70;99.90
5554;DHT22;2800;49.528;8.666;2022-12-18T15:10:26;-3.70;99.90
5554;DHT22;2800;49.528;8.666;2022-12-18T15:18:11;-3.60;99.90
5554;DHT22;2800;49.528;8.666;2022-12-18T15:26:08;-3.70;99.90
5554;DHT22;2800;49.528;8.666;2022-12-18T15:28:52;-3.70;99.90
5554;DHT22;2800;49.528;8.666;2022-12-18T15:36:23;-3.80;99.90
5554;DHT22;2800;49.528;8.666;2022-12-18T15:38:50;-3.80;99.90
5554;DHT22;2800;49.528;8.666;2022-12-18T15:41:18;-3.90;99.90
5554;DHT22;2800;49.528;8.666;2022-12-18T15:43:45;-3.90;99.90
5554;DHT22;2800;49.528;8.666;2022-12-18T15:46:16;-3.90;99.90
5554;DHT22;2800;49.528;8.666;2022-12-18T15:48:44;-3.90;99.90
5554;DHT22;2800;49.528;8.666;2022-12-18T15:51:19;-3.90;99.90
5554;DHT22;2800;49.528;8.666;2022-12-18T15:53:46;-4.00;99.90
5554;DHT22;2800;49.528;8.666;2022-12-18T15:56:15;-4.00;99.90
5554;DHT22;2800;49.528;8.666;2022-12-18T15:58:59;-4.10;99.90
5554;DHT22;2800;49.528;8.666;2022-12-18T16:01:29;-4.00;99.90
5554;DHT22;2800;49.528;8.666;2022-12-18T16:03:56;-4.10;99.90
5554;DHT22;2800;49.528;8.666;2022-12-18T16:06:24;-4.10;99.90
5554;DHT22;2800;49.528;8.666;2022-12-18T16:08:50;-4.10;99.90
5554;DHT22;2800;49.528;8.666;2022-12-18T16:11:22;-4.00;99.90
5554;DHT22;2800;49.528;8.666;2022-12-18T16:14:25;-4.00;99.90
5554;DHT22;2800;49.528;8.666;2022-12-18T16:16:56;-4.00;99.90
5554;DHT22;2800;49.528;8.666;2022-12-18T16:19:22;-4.00;99.90
5554;DHT22;2800;49.528;8.666;2022-12-18T16:21:49;-4.00;99.90
5554;DHT22;2800;49.528;8.666;2022-12-18T16:24:20;-4.10;99.90
5554;DHT22;2800;49.528;8.666;2022-12-18T16:26:49;-4.10;99.90
5554;DHT22;2800;49.528;8.666;2022-12-18T16:29:17;-4.20;99.90
5554;DHT22;2800;49.528;8.666;2022-12-18T16:31:43;-4.10;99.90
5554;DHT22;2800;49.528;8.666;2022-12-18T16:34:22;-4.10;99.90
5554;DHT22;2800;49.528;8.666;2022-12-18T16:36:49;-4.10;99.90
5554;DHT22;2800;49.528;8.666;2022-12-18T16:39:15;-4.10;99.90
5554;DHT22;2800;49.528;8.666;2022-12-18T16:41:40;-4.00;99.90
5554;DHT22;2800;49.528;8.666;2022-12-18T16:44:06;-4.10;99.90
5554;DHT22;2800;49.528;8.666;2022-12-18T16:46:32;-4.10;99.90
5554;DHT22;2800;49.528;8.666;2022-12-18T16:49:00;-4.00;99.90
5554;DHT22;2800;49.528;8.666;2022-12-18T16:51:27;-4.00;99.90
5554;DHT22;2800;49.528;8.666;2022-12-18T16:53:53;-3.90;99.90
5554;DHT22;2800;49.528;8.666;2022-12-18T16:56:19;-3.90;99.90
5554;DHT22;2800;49.528;8.666;2022-12-18T16:58:52;-3.80;99.90
5554;DHT22;2800;49.528;8.666;2022-12-18T17:01:18;-3.80;99.90
5554;DHT22;2800;49.528;8.666;2022-12-18T17:03:43;-3.80;99.90
5554;DHT22;2800;49.528;8.666;2022-12-18T17:06:09;-3.70;99.90
5554;DHT22;2800;49.528;8.666;2022-12-18T17:08:34;-3.70;99.90
5554;DHT22;2800;49.528;8.666;2022-12-18T17:11:06;-3.50;99.90
5554;DHT22;2800;49.528;8.666;2022-12-18T17:13:33;-3.60;99.90
5554;DHT22;2800;49.528;8.666;2022-12-18T17:16:03;-3.50;99.90
5554;DHT22;2800;49.528;8.666;2022-12-18T17:18:29;-3.60;99.90
5554;DHT22;2800;49.528;8.666;2022-12-18T17:21:01;-3.50;99.90
5554;DHT22;2800;49.528;8.666;2022-12-18T17:23:28;-3.50;99.90
5554;DHT22;2800;49.528;8.666;2022-12-18T17:25:57;-3.50;99.90
5554;DHT22;2800;49.528;8.666;2022-12-18T17:28:24;-3.30;99.90
5554;DHT22;2800;49.528;8.666;2022-12-18T17:30:51;-3.30;99.90
5554;DHT22;2800;49.528;8.666;2022-12-18T17:33:17;-3.30;99.90
5554;DHT22;2800;49.528;8.666;2022-12-18T17:35:42;-3.30;99.90
5554;DHT22;2800;49.528;8.666;2022-12-18T17:38:08;-3.40;99.90
5554;DHT22;2800;49.528;8.666;2022-12-18T17:40:34;-3.30;99.90
5554;DHT22;2800;49.528;8.666;2022-12-18T17:43:00;-3.30;99.90
5554;DHT22;2800;49.528;8.666;2022-12-18T17:45:25;-3.40;99.90
5554;DHT22;2800;49.528;8.666;2022-12-18T17:47:51;-3.50;99.90
5554;DHT22;2800;49.528;8.666;2022-12-18T17:50:17;-3.60;99.90
5554;DHT22;2800;49.528;8.666;2022-12-18T17:52:42;-3.70;99.90
5554;DHT22;2800;49.528;8.666;2022-12-18T17:55:08;-3.70;99.90
5554;DHT22;2800;49.528;8.666;2022-12-18T17:57:34;-3.70;99.90
5554;DHT22;2800;49.528;8.666;2022-12-18T18:00:01;-3.70;99.90